»·PEaware :: BOE561 KONT-KSLC

BOE561 :: KONT-KSLC

FLIGHT INFORMATION

Flight Status: Arrived
Operator:
Boeing Commercial Airplane Group
More flights by this operator :: More flights under this callsign
Pilot: Ben F. (2808)
Aircraft: BOEING 737-200
(B732)
More flights by this aircraft type
Origin: KONT Ontario Intl
United States
Destination: KSLC Salt Lake City Intl
United States
More flights between these airports :: More routes between these airports
Route: +POM9 DAG LAS J9 FFU
File this flight plan on PilotEdge
Remarks:
Altitude:
(Current/Filed)
33,000ft
Speed:
(Current/Filed)
437kts
Departed: 26-Sep-18 05:25 PM
Arrived: 26-Sep-18 06:49 PM
Distance/Time
Traveled:
485nm/1:23
Distance/Time
To Go:
Arrived

Flight Plot

Page will automatically refresh every two minutes.

Flight plan parsing failed; only flown route is shown


Map Options




Map Legend


Flown Route
Filed Route
Departure Airport
Arrival Airport
Navaid (VOR, NDB)
Fix

Horizontal Profiles

Position Reports

Time Latitude Longitude Heading Altitude Ground
Speed
26-Sep-18 17:10 34.059827 -117.599852 33 952ft 0kts
26-Sep-18 17:11 34.059827 -117.599852 33 952ft 0kts
26-Sep-18 17:12 34.059827 -117.599852 33 952ft 0kts
26-Sep-18 17:13 34.059827 -117.599852 33 952ft 0kts
26-Sep-18 17:14 34.059827 -117.599852 33 952ft 0kts
26-Sep-18 17:15 34.059827 -117.599852 33 952ft 0kts
26-Sep-18 17:16 34.059746 -117.599918 33 952ft 2kts
26-Sep-18 17:17 34.059663 -117.600416 126 952ft 0kts
26-Sep-18 17:18 34.059664 -117.600418 126 952ft 0kts
26-Sep-18 17:19 34.059664 -117.600418 126 952ft 0kts
26-Sep-18 17:20 34.059525 -117.600215 132 952ft 7kts
26-Sep-18 17:21 34.057920 -117.598040 90 952ft 14kts
26-Sep-18 17:22 34.057920 -117.591429 91 952ft 22kts
26-Sep-18 17:23 34.057945 -117.584299 88 952ft 20kts
26-Sep-18 17:24 34.057515 -117.582687 178 952ft 0kts
26-Sep-18 17:25 34.057515 -117.582687 178 952ft 0kts
26-Sep-18 17:26 34.056895 -117.583172 269 952ft 9kts
26-Sep-18 17:27 34.056969 -117.602860 270 1029ft 158kts
26-Sep-18 17:28 34.057602 -117.660242 268 3340ft 189kts
26-Sep-18 17:29 34.058871 -117.736844 268 4982ft 268kts
26-Sep-18 17:30 34.091553 -117.818381 316 7773ft 295kts
26-Sep-18 17:31 34.154940 -117.882675 318 10541ft 305kts
26-Sep-18 17:32 34.220488 -117.955547 318 12506ft 333kts
26-Sep-18 17:33 34.296540 -118.013575 3 14563ft 334kts
26-Sep-18 17:34 34.359039 -117.943043 64 16608ft 330kts
26-Sep-18 17:35 34.400492 -117.844994 60 18597ft 328kts
26-Sep-18 17:36 34.445048 -117.745410 60 19758ft 346kts
26-Sep-18 17:37 34.492852 -117.639416 60 20351ft 375kts
26-Sep-18 17:38 34.543424 -117.527035 59 21396ft 382kts
26-Sep-18 17:39 34.594642 -117.412888 59 22322ft 389kts
26-Sep-18 17:40 34.646119 -117.297779 60 23139ft 395kts
26-Sep-18 17:41 34.698724 -117.179749 59 23893ft 401kts
26-Sep-18 17:42 34.751972 -117.059838 59 24688ft 407kts
26-Sep-18 17:43 34.798996 -116.953614 59 25268ft 413kts
26-Sep-18 17:44 34.853926 -116.829133 58 25837ft 421kts
26-Sep-18 17:45 34.908860 -116.704193 59 26431ft 425kts
26-Sep-18 17:46 34.966727 -116.579277 47 26953ft 425kts
26-Sep-18 17:47 35.047850 -116.474359 43 27435ft 428kts
26-Sep-18 17:48 35.129887 -116.371782 43 27891ft 430kts
26-Sep-18 17:49 35.210743 -116.270686 44 28392ft 430kts
26-Sep-18 17:50 35.294023 -116.166263 44 28982ft 428kts
26-Sep-18 17:51 35.377122 -116.061752 44 29321ft 431kts
26-Sep-18 17:52 35.460507 -115.956541 44 29750ft 431kts
26-Sep-18 17:53 35.543688 -115.851253 44 30119ft 431kts
26-Sep-18 17:54 35.626596 -115.745981 44 30496ft 431kts
26-Sep-18 17:55 35.710005 -115.639735 44 30749ft 433kts
26-Sep-18 17:56 35.793278 -115.532632 44 30998ft 435kts
26-Sep-18 17:57 35.876756 -115.424168 44 31066ft 440kts
26-Sep-18 17:58 35.959343 -115.316451 45 31053ft 445kts
26-Sep-18 17:59 36.043874 -115.206735 44 31058ft 449kts
26-Sep-18 18:00 36.122087 -115.106321 44 31028ft 452kts
26-Sep-18 18:01 36.208849 -114.995434 44 30999ft 451kts
26-Sep-18 18:02 36.295200 -114.884735 44 30995ft 449kts
26-Sep-18 18:03 36.381914 -114.773183 44 30993ft 449kts
26-Sep-18 18:04 36.468174 -114.661835 44 30994ft 449kts
26-Sep-18 18:05 36.554245 -114.550347 44 30993ft 449kts
26-Sep-18 18:06 36.640309 -114.438487 44 31001ft 448kts
26-Sep-18 18:07 36.723632 -114.329842 44 31037ft 448kts
26-Sep-18 18:08 36.820586 -114.236302 30 31070ft 443kts
26-Sep-18 18:09 36.924634 -114.155354 30 31072ft 443kts
26-Sep-18 18:10 37.029170 -114.074413 29 31072ft 443kts
26-Sep-18 18:11 37.129443 -113.996583 29 31078ft 443kts
26-Sep-18 18:12 37.233101 -113.915897 29 31075ft 443kts
26-Sep-18 18:13 37.337488 -113.834355 29 31075ft 442kts
26-Sep-18 18:14 37.441560 -113.752790 29 31075ft 442kts
26-Sep-18 18:15 37.544717 -113.671376 29 31108ft 441kts
26-Sep-18 18:16 37.648072 -113.589105 29 31198ft 439kts
26-Sep-18 18:17 37.750858 -113.507012 29 31261ft 438kts
26-Sep-18 18:18 37.853584 -113.424690 29 31264ft 439kts
26-Sep-18 18:19 37.953625 -113.344255 30 31260ft 439kts
26-Sep-18 18:20 38.055472 -113.262100 30 31258ft 436kts
26-Sep-18 18:21 38.152004 -113.183977 30 31249ft 434kts
26-Sep-18 18:22 38.247833 -113.106184 30 31240ft 435kts
26-Sep-18 18:23 38.349686 -113.023399 28 31235ft 436kts
26-Sep-18 18:24 38.459924 -112.961324 20 31237ft 435kts
26-Sep-18 18:25 38.571221 -112.901708 20 31235ft 434kts
26-Sep-18 18:26 38.681515 -112.842583 20 31234ft 431kts
26-Sep-18 18:27 38.790786 -112.783807 20 31232ft 430kts
26-Sep-18 18:28 38.900723 -112.724460 20 31193ft 429kts
26-Sep-18 18:29 39.010130 -112.665131 19 31115ft 428kts
26-Sep-18 18:30 39.112889 -112.609340 18 31102ft 425kts
26-Sep-18 18:31 39.215673 -112.553321 18 31105ft 424kts
26-Sep-18 18:32 39.323589 -112.493748 19 29156ft 429kts
26-Sep-18 18:33 39.430025 -112.432792 19 26526ft 408kts
26-Sep-18 18:34 39.530218 -112.375246 19 24212ft 390kts
26-Sep-18 18:35 39.624024 -112.321223 19 21651ft 381kts
26-Sep-18 18:36 39.718880 -112.266426 20 19128ft 370kts
26-Sep-18 18:37 39.811116 -112.212990 20 16760ft 359kts
26-Sep-18 18:38 39.900284 -112.161165 20 15008ft 339kts
26-Sep-18 18:39 39.986977 -112.110706 20 15020ft 355kts
26-Sep-18 18:40 40.077908 -112.057563 21 14899ft 359kts
26-Sep-18 18:41 40.164255 -112.007028 21 13245ft 360kts
26-Sep-18 18:42 40.253912 -111.954346 21 11607ft 346kts
26-Sep-18 18:43 40.339802 -111.933068 3 10998ft 285kts
26-Sep-18 18:44 40.417816 -111.922825 359 10985ft 282kts
26-Sep-18 18:45 40.493397 -111.930423 351 9860ft 263kts
26-Sep-18 18:46 40.564220 -111.938701 352 8524ft 250kts
26-Sep-18 18:47 40.630649 -111.945971 352 7058ft 242kts
26-Sep-18 18:48 40.695930 -111.954999 345 5764ft 232kts
26-Sep-18 18:49 40.748474 -111.961839 357 4686ft 157kts
26-Sep-18 18:50 40.784134 -111.962092 2 4236ft 46kts
26-Sep-18 18:51 40.785999 -111.960555 125 4236ft 0kts
26-Sep-18 18:52 40.783039 -111.959232 179 4236ft 15kts
26-Sep-18 18:53 40.779588 -111.958820 92 4236ft 6kts
26-Sep-18 18:54 40.779235 -111.958487 178 4236ft 0kts
26-Sep-18 18:55 40.779235 -111.958487 178 4236ft 0kts

Navigation Log

Ident Type
Flight plan parsing failed, navigation log unavailable